createdAt,value
2023-02-21T00:02:43.562Z,101432.63
2023-02-21T00:05:28.797Z,101429.13
2023-02-21T00:08:16.175Z,101430.00
2023-02-21T00:11:01.273Z,101424.78
2023-02-21T00:13:47.250Z,101414.38
2023-02-21T00:16:35.039Z,101421.34
2023-02-21T00:19:20.576Z,101419.56
2023-02-21T00:22:05.867Z,101418.69
2023-02-21T00:24:52.847Z,101425.59
2023-02-21T00:27:38.277Z,101417.84
2023-02-21T00:30:24.037Z,101425.63
2023-02-21T00:33:09.664Z,101426.44
2023-02-21T00:35:55.997Z,101435.94
2023-02-21T00:38:41.456Z,101434.16
2023-02-21T00:41:27.795Z,101435.91
2023-02-21T00:44:14.172Z,101436.78
2023-02-21T00:46:59.760Z,101428.09
2023-02-21T00:49:45.414Z,101434.22
2023-02-21T00:52:31.237Z,101439.44
2023-02-21T00:55:16.465Z,101442.03
2023-02-21T00:58:03.329Z,101429.03
2023-02-21T01:00:48.412Z,101433.34
2023-02-21T01:03:33.593Z,101436.81
2023-02-21T01:06:18.873Z,101429.88
2023-02-21T01:09:06.049Z,101432.50
2023-02-21T01:11:51.820Z,101432.50
2023-02-21T01:14:38.746Z,101431.59
2023-02-21T01:17:24.433Z,101429.91
2023-02-21T01:20:10.427Z,101422.09
2023-02-21T01:22:57.799Z,101429.06
2023-02-21T01:25:43.151Z,101434.28
2023-02-21T01:28:28.745Z,101423.88
2023-02-21T01:31:15.531Z,101420.41
2023-02-21T01:34:01.036Z,101418.66
2023-02-21T01:36:46.232Z,101425.59
2023-02-21T01:39:32.894Z,101418.66
2023-02-21T01:42:19.334Z,101420.38
2023-02-21T01:45:07.900Z,101414.31
2023-02-21T01:47:54.541Z,101418.69
2023-02-21T01:50:43.799Z,101423.88
2023-02-21T01:53:33.716Z,101411.75
2023-02-21T01:56:19.905Z,101399.63
2023-02-21T01:59:09.016Z,101406.53
2023-02-21T02:02:03.422Z,101410.03
2023-02-21T02:04:52.577Z,101409.16
2023-02-21T02:07:39.156Z,101408.25
2023-02-21T02:10:28.191Z,101406.50
2023-02-21T02:13:12.830Z,101401.34
2023-02-21T02:15:54.266Z,101404.84
2023-02-21T02:18:46.952Z,101397.88
2023-02-21T02:21:55.596Z,101393.53
2023-02-21T02:24:44.717Z,101403.09
2023-02-21T02:27:39.358Z,101397.03
2023-02-21T02:30:41.689Z,101394.44
2023-02-21T02:33:43.171Z,101395.28
2023-02-21T02:36:16.290Z,101395.22
2023-02-21T02:38:54.362Z,101397.00
2023-02-21T02:41:32.702Z,101392.69
2023-02-21T02:44:07.378Z,101384.84
2023-02-21T02:46:39.467Z,101386.59
2023-02-21T02:49:11.828Z,101382.25
2023-02-21T02:51:41.290Z,101378.78
2023-02-21T02:54:11.221Z,101374.44
2023-02-21T02:56:39.230Z,101377.94
2023-02-21T02:59:10.127Z,101382.25
2023-02-21T03:01:58.230Z,101383.13
2023-02-21T03:04:49.957Z,101371.88
2023-02-21T03:07:27.313Z,101373.63
2023-02-21T03:10:10.983Z,101380.56
2023-02-21T03:12:45.116Z,101374.50
2023-02-21T03:15:19.920Z,101371.00
2023-02-21T03:17:52.733Z,101376.19
2023-02-21T03:20:22.136Z,101375.31
2023-02-21T03:22:53.402Z,101372.69
2023-02-21T03:25:23.826Z,101379.63
2023-02-21T03:27:56.348Z,101377.91
2023-02-21T03:30:27.456Z,101372.69
2023-02-21T03:32:57.017Z,101377.91
2023-02-21T03:35:30.363Z,101373.56
2023-02-21T03:38:01.252Z,101367.50
2023-02-21T03:40:31.692Z,101367.53
2023-02-21T03:43:03.430Z,101374.44
2023-02-21T03:45:36.052Z,101378.81
2023-02-21T03:48:12.482Z,101368.41
2023-02-21T03:50:42.303Z,101367.53
2023-02-21T03:53:12.413Z,101365.78
2023-02-21T03:55:44.554Z,101364.91
2023-02-21T03:58:19.349Z,101361.47
2023-02-21T04:00:47.787Z,101358.88
2023-02-21T04:03:18.741Z,101356.25
2023-02-21T04:05:56.191Z,101353.59
2023-02-21T04:08:25.838Z,101356.19
2023-02-21T04:10:53.794Z,101359.69
2023-02-21T04:13:26.137Z,101353.56
2023-02-21T04:15:56.012Z,101355.31
2023-02-21T04:18:24.835Z,101359.66
2023-02-21T04:20:54.793Z,101352.69
2023-02-21T04:23:24.803Z,101349.25
2023-02-21T04:25:53.314Z,101356.16
2023-02-21T04:28:28.296Z,101353.56
2023-02-21T04:30:56.618Z,101350.97
2023-02-21T04:33:25.709Z,101357.06
2023-02-21T04:35:53.596Z,101346.66
2023-02-21T04:38:37.652Z,101357.03
2023-02-21T04:41:06.362Z,101347.47
2023-02-21T04:43:34.417Z,101361.34
2023-02-21T04:46:02.419Z,101353.56
2023-02-21T04:48:30.396Z,101349.19
2023-02-21T04:51:13.525Z,101361.34
2023-02-21T04:53:44.306Z,101356.16
2023-02-21T04:56:12.699Z,101347.47
2023-02-21T04:58:45.361Z,101350.06
2023-02-21T05:01:14.542Z,101351.81
2023-02-21T05:03:42.671Z,101355.31
2023-02-21T05:06:10.836Z,101347.53
2023-02-21T05:08:38.703Z,101350.97
2023-02-21T05:11:08.768Z,101357.94
2023-02-21T05:13:36.637Z,101341.44
2023-02-21T05:16:04.539Z,101343.16
2023-02-21T05:18:34.466Z,101350.97
2023-02-21T05:21:03.434Z,101353.56
2023-02-21T05:23:38.407Z,101348.38
2023-02-21T05:26:09.971Z,101344.88
2023-02-21T05:28:38.916Z,101337.97
2023-02-21T05:31:07.787Z,101350.09
2023-02-21T05:33:35.765Z,101344.88
2023-02-21T05:36:03.965Z,101339.66
2023-02-21T05:38:31.827Z,101339.63
2023-02-21T05:40:59.853Z,101350.94
2023-02-21T05:43:33.686Z,101349.22
2023-02-21T05:46:02.013Z,101344.03
2023-02-21T05:48:30.054Z,101350.97
2023-02-21T05:50:57.985Z,101349.22
2023-02-21T05:53:25.905Z,101347.47
2023-02-21T05:55:53.787Z,101351.81
2023-02-21T05:58:21.604Z,101344.03
2023-02-21T06:00:52.597Z,101336.22
2023-02-21T06:03:20.877Z,101339.66
2023-02-21T06:05:48.729Z,101333.59
2023-02-21T06:08:16.562Z,101337.03
2023-02-21T06:10:44.374Z,101339.63
2023-02-21T06:13:12.232Z,101350.91
2023-02-21T06:15:40.153Z,101355.25
2023-02-21T06:18:09.975Z,101340.50
2023-02-21T06:20:37.949Z,101350.91
2023-02-21T06:23:05.881Z,101349.16
2023-02-21T06:25:33.787Z,101350.88
2023-02-21T06:28:01.944Z,101347.38
2023-02-21T06:30:29.915Z,101350.81
2023-02-21T06:32:57.798Z,101353.44
2023-02-21T06:35:27.111Z,101351.63
2023-02-21T06:37:55.065Z,101356.84
2023-02-21T06:40:22.941Z,101351.66
2023-02-21T06:42:50.909Z,101350.78
2023-02-21T06:45:19.017Z,101347.38
2023-02-21T06:47:46.969Z,101349.06
2023-02-21T06:50:15.390Z,101349.94
2023-02-21T06:52:44.682Z,101351.69
2023-02-21T06:55:12.539Z,101355.16
2023-02-21T06:57:40.646Z,101360.31
2023-02-21T07:00:09.821Z,101351.66
2023-02-21T07:02:38.756Z,101368.06
2023-02-21T07:05:07.829Z,101368.94
2023-02-21T07:07:35.706Z,101364.56
2023-02-21T07:10:06.056Z,101371.47
2023-02-21T07:12:34.508Z,101366.28
2023-02-21T07:15:02.349Z,101360.25
2023-02-21T07:17:30.389Z,101364.63
2023-02-21T07:19:58.358Z,101358.56
2023-02-21T07:22:26.634Z,101368.97
2023-02-21T07:24:55.097Z,101362.94
2023-02-21T07:27:24.832Z,101362.94
2023-02-21T07:29:52.790Z,101369.06
2023-02-21T07:32:21.929Z,101361.25
2023-02-21T07:34:50.336Z,101373.44
2023-02-21T07:37:18.308Z,101363.94
2023-02-21T07:39:46.273Z,101370.78
2023-02-21T07:42:14.549Z,101361.28
2023-02-21T07:44:48.089Z,101363.06
2023-02-21T07:47:16.170Z,101367.41
2023-02-21T07:49:44.043Z,101367.38
2023-02-21T07:52:12.103Z,101370.84
2023-02-21T07:54:40.090Z,101363.94
2023-02-21T07:57:08.071Z,101368.19
2023-02-21T07:59:35.913Z,101373.47
2023-02-21T08:02:05.669Z,101368.41
2023-02-21T08:04:33.757Z,101360.59
2023-02-21T08:07:02.666Z,101371.00
2023-02-21T08:09:30.555Z,101374.44
2023-02-21T08:11:58.379Z,101379.66
2023-02-21T08:14:26.294Z,101375.28
2023-02-21T08:16:54.246Z,101375.31
2023-02-21T08:19:23.924Z,101377.91
2023-02-21T08:21:52.046Z,101364.91
2023-02-21T08:24:20.624Z,101370.19
2023-02-21T08:26:48.692Z,101363.25
2023-02-21T08:29:18.204Z,101351.13
2023-02-21T08:31:46.458Z,101347.66
2023-02-21T08:34:15.183Z,101360.69
2023-02-21T08:36:45.020Z,101364.19
2023-02-21T08:39:12.964Z,101365.03
2023-02-21T08:41:43.309Z,101365.88
2023-02-21T08:44:12.345Z,101365.00
2023-02-21T08:46:40.786Z,101370.22
2023-02-21T08:49:09.622Z,101371.09
2023-02-21T08:51:37.865Z,101371.09
2023-02-21T08:54:08.066Z,101367.66
2023-02-21T08:56:35.934Z,101370.28
2023-02-21T08:59:05.845Z,101362.44
2023-02-21T09:01:35.429Z,101366.81
2023-02-21T09:04:05.245Z,101363.34
2023-02-21T09:06:33.474Z,101352.06
2023-02-21T09:09:01.793Z,101353.84
2023-02-21T09:11:31.088Z,101352.09
2023-02-21T09:13:59.017Z,101352.97
2023-02-21T09:16:26.957Z,101346.03
2023-02-21T09:18:56.982Z,101335.59
2023-02-21T09:21:24.973Z,101333.00
2023-02-21T09:23:54.920Z,101343.41
2023-02-21T09:26:25.059Z,101334.75
2023-02-21T09:28:54.340Z,101326.03
2023-02-21T09:31:22.704Z,101329.47
2023-02-21T09:33:50.686Z,101326.88
2023-02-21T09:36:23.569Z,101331.19
2023-02-21T09:38:52.286Z,101331.19
2023-02-21T09:41:21.864Z,101326.00
2023-02-21T09:43:52.591Z,101323.38
2023-02-21T09:46:31.156Z,101325.13
2023-02-21T09:48:59.960Z,101333.78
2023-02-21T09:51:28.104Z,101325.13
2023-02-21T09:53:59.574Z,101327.69
2023-02-21T09:56:31.000Z,101336.44
2023-02-21T09:58:59.912Z,101332.03
2023-02-21T10:01:45.063Z,101330.25
2023-02-21T10:04:25.872Z,101335.44
2023-02-21T10:06:59.806Z,101338.03
2023-02-21T10:09:39.580Z,101336.22
2023-02-21T10:12:19.103Z,101327.47
2023-02-21T10:15:03.617Z,101332.78
2023-02-21T10:17:37.457Z,101329.28
2023-02-21T10:20:12.654Z,101326.63
2023-02-21T10:22:46.332Z,101319.63
2023-02-21T10:25:24.070Z,101330.84
2023-02-21T10:27:54.329Z,101323.06
2023-02-21T10:30:29.248Z,101321.25
2023-02-21T10:32:58.851Z,101322.91
2023-02-21T10:35:27.221Z,101317.53
2023-02-21T10:37:57.960Z,101317.28
2023-02-21T10:40:34.643Z,101325.09
2023-02-21T10:43:08.508Z,101327.78
2023-02-21T10:45:41.447Z,101326.84
2023-02-21T10:48:12.175Z,101325.03
2023-02-21T10:50:50.169Z,101323.84
2023-02-21T10:53:27.771Z,101315.38
2023-02-21T10:56:23.816Z,101322.19
2023-02-21T10:58:55.393Z,101317.25
2023-02-21T11:01:31.794Z,101310.13
2023-02-21T11:04:04.129Z,101320.59
2023-02-21T11:06:36.954Z,101323.25
2023-02-21T11:09:31.146Z,101308.78
2023-02-21T11:12:05.096Z,101312.41
2023-02-21T11:14:34.449Z,101305.94
2023-02-21T11:17:16.864Z,101292.94
2023-02-21T11:19:49.939Z,101296.19
2023-02-21T11:22:21.722Z,101294.19
2023-02-21T11:25:00.889Z,101279.47
2023-02-21T11:27:32.987Z,101278.63
2023-02-21T11:30:03.762Z,101276.44
2023-02-21T11:32:36.026Z,101266.16
2023-02-21T11:35:10.159Z,101264.28
2023-02-21T11:37:51.064Z,101259.34
2023-02-21T11:40:29.393Z,101252.31
2023-02-21T11:43:22.249Z,101247.75
2023-02-21T11:46:03.119Z,101250.38
2023-02-21T11:48:36.806Z,101240.81
2023-02-21T11:51:15.063Z,101240.97
2023-02-21T11:53:44.971Z,101233.91
2023-02-21T11:56:21.211Z,101225.44
2023-02-21T11:58:59.746Z,101228.38
2023-02-21T12:01:32.385Z,101220.22
2023-02-21T12:04:11.849Z,101215.31
2023-02-21T12:06:49.043Z,101210.72
2023-02-21T12:09:26.804Z,101208.84
2023-02-21T12:12:07.947Z,101211.47
2023-02-21T12:14:48.821Z,101200.22
2023-02-21T12:17:47.013Z,101188.25
2023-02-21T12:20:34.177Z,101190.84
2023-02-21T12:23:16.732Z,101183.19
2023-02-21T12:26:28.626Z,101186.00
2023-02-21T12:29:21.897Z,101176.94
2023-02-21T12:32:03.597Z,101171.72
2023-02-21T12:34:47.743Z,101179.69
2023-02-21T12:37:24.744Z,101169.06
2023-02-21T12:40:13.113Z,101162.91
2023-02-21T12:42:52.470Z,101157.94
2023-02-21T12:45:38.461Z,101156.06
2023-02-21T12:48:13.596Z,101148.66
2023-02-21T12:50:44.871Z,101136.38
2023-02-21T12:53:17.457Z,101140.03
2023-02-21T12:55:52.729Z,101147.06
2023-02-21T12:58:25.123Z,101141.06
2023-02-21T13:00:57.058Z,101145.09
2023-02-21T13:03:37.413Z,101132.34
2023-02-21T13:06:11.276Z,101133.22
2023-02-21T13:08:52.071Z,101126.75
2023-02-21T13:11:28.442Z,101130.03
2023-02-21T13:13:57.443Z,101128.91
2023-02-21T13:16:26.867Z,101121.69
2023-02-21T13:19:00.297Z,101114.69
2023-02-21T13:21:45.624Z,101110.19
2023-02-21T13:24:42.902Z,101107.22
2023-02-21T13:27:40.794Z,101107.59
2023-02-21T13:30:15.920Z,101100.00
2023-02-21T13:32:53.909Z,101101.59
2023-02-21T13:35:27.976Z,101092.72
2023-02-21T13:37:56.921Z,101088.34
2023-02-21T13:40:32.821Z,101087.38
2023-02-21T13:43:11.932Z,101072.53
2023-02-21T13:45:40.407Z,101083.50
2023-02-21T13:48:29.355Z,101075.16
2023-02-21T13:50:59.037Z,101072.09
2023-02-21T13:53:33.810Z,101069.53
2023-02-21T13:56:19.135Z,101072.97
2023-02-21T13:58:49.703Z,101071.28
2023-02-21T14:01:26.794Z,101066.69
2023-02-21T14:03:58.865Z,101057.34
2023-02-21T14:06:34.769Z,101059.75
2023-02-21T14:09:14.376Z,101050.44
2023-02-21T14:11:48.130Z,101050.41
2023-02-21T14:14:27.216Z,101048.44
2023-02-21T14:17:02.267Z,101047.91
2023-02-21T14:19:36.802Z,101042.59
2023-02-21T14:22:11.636Z,101039.78
2023-02-21T14:24:43.363Z,101037.25
2023-02-21T14:27:34.956Z,101038.72
2023-02-21T14:30:33.955Z,101038.19
2023-02-21T14:33:19.234Z,101037.22
2023-02-21T14:35:49.466Z,101034.13
2023-02-21T14:38:22.466Z,101036.94
2023-02-21T14:41:04.959Z,101026.31
2023-02-21T14:43:56.126Z,101023.03
2023-02-21T14:46:48.105Z,101018.13
2023-02-21T14:49:55.634Z,101031.50
2023-02-21T14:52:38.868Z,101032.31
2023-02-21T14:55:27.193Z,101030.06
2023-02-21T14:58:30.678Z,101030.06
2023-02-21T15:01:09.446Z,101027.03
2023-02-21T15:03:45.561Z,101029.72
2023-02-21T15:06:21.089Z,101024.19
2023-02-21T15:08:51.085Z,101019.75
2023-02-21T15:11:26.308Z,101021.88
2023-02-21T15:14:09.004Z,101016.41
2023-02-21T15:16:45.472Z,101016.25
2023-02-21T15:19:25.185Z,101020.34
2023-02-21T15:22:17.448Z,101022.25
2023-02-21T15:25:12.338Z,101008.38
2023-02-21T15:27:53.525Z,101011.28
2023-02-21T15:30:24.901Z,101015.84
2023-02-21T15:32:59.926Z,101010.34
2023-02-21T15:35:33.595Z,101013.91
2023-02-21T15:38:04.574Z,101017.22
2023-02-21T15:40:32.783Z,101011.19
2023-02-21T15:43:02.167Z,101015.66
2023-02-21T15:45:34.483Z,101012.84
2023-02-21T15:48:03.413Z,101010.28
2023-02-21T15:50:36.988Z,101008.78
2023-02-21T15:53:17.086Z,101011.03
2023-02-21T15:55:46.007Z,101003.09
2023-02-21T15:58:18.012Z,101000.69
2023-02-21T16:00:47.395Z,100999.72
2023-02-21T16:03:50.430Z,101012.22
2023-02-21T16:06:23.694Z,101012.53
2023-02-21T16:08:58.947Z,101007.53
2023-02-21T16:11:39.662Z,101008.59
2023-02-21T16:14:08.517Z,101010.34
2023-02-21T16:16:37.014Z,101001.84
2023-02-21T16:19:05.076Z,100999.47
2023-02-21T16:21:35.313Z,100998.91
2023-02-21T16:24:17.047Z,100995.75
2023-02-21T16:27:03.185Z,101000.16
2023-02-21T16:29:31.071Z,100996.72
2023-02-21T16:31:59.175Z,101001.34
2023-02-21T16:34:29.874Z,101005.66
2023-02-21T16:37:05.650Z,101004.22
2023-02-21T16:39:33.341Z,100999.75
2023-02-21T16:42:01.774Z,101000.97
2023-02-21T16:44:30.054Z,101000.16
2023-02-21T16:46:57.969Z,100996.88
2023-02-21T16:49:26.064Z,100997.75
2023-02-21T16:51:54.445Z,101000.72
2023-02-21T16:54:23.784Z,101003.47
2023-02-21T16:56:54.452Z,101010.41
2023-02-21T16:59:25.547Z,101009.66
2023-02-21T17:01:53.582Z,101010.56
2023-02-21T17:04:25.159Z,101020.34
2023-02-21T17:06:55.822Z,101018.72
2023-02-21T17:09:27.684Z,101013.72
2023-02-21T17:11:56.146Z,101011.13
2023-02-21T17:14:24.042Z,101021.78
2023-02-21T17:16:51.906Z,101025.41
2023-02-21T17:19:21.706Z,101027.09
2023-02-21T17:21:50.711Z,101029.00
2023-02-21T17:24:20.028Z,101028.16
2023-02-21T17:26:49.299Z,101035.16
2023-02-21T17:29:17.213Z,101032.59
2023-02-21T17:31:45.181Z,101037.81
2023-02-21T17:34:14.020Z,101031.88
2023-02-21T17:36:42.056Z,101045.00
2023-02-21T17:39:10.871Z,101048.47
2023-02-21T17:41:45.790Z,101049.38
2023-02-21T17:44:15.959Z,101051.16
2023-02-21T17:46:48.394Z,101043.38
2023-02-21T17:49:18.693Z,101043.34
2023-02-21T17:51:47.648Z,101050.31
2023-02-21T17:54:16.366Z,101048.63
2023-02-21T17:56:44.402Z,101046.88
2023-02-21T17:59:13.010Z,101050.44
2023-02-21T18:01:42.974Z,101057.44
2023-02-21T18:04:13.607Z,101047.00
2023-02-21T18:06:42.037Z,101054.00
2023-02-21T18:09:11.016Z,101055.78
2023-02-21T18:11:39.055Z,101056.63
2023-02-21T18:14:07.002Z,101054.00
2023-02-21T18:16:34.950Z,101047.09
2023-02-21T18:19:04.266Z,101051.47
2023-02-21T18:21:32.186Z,101054.94
2023-02-21T18:24:00.346Z,101048.81
2023-02-21T18:26:28.280Z,101047.94
2023-02-21T18:28:56.253Z,101049.72
2023-02-21T18:31:24.357Z,101045.41
2023-02-21T18:33:52.322Z,101047.16
2023-02-21T18:36:21.555Z,101041.91
2023-02-21T18:38:49.598Z,101040.16
2023-02-21T18:41:20.311Z,101041.91
2023-02-21T18:43:48.278Z,101048.03
2023-02-21T18:46:19.141Z,101051.50
2023-02-21T18:48:48.858Z,101047.16
2023-02-21T18:51:20.054Z,101052.38
2023-02-21T18:53:49.973Z,101049.78
2023-02-21T18:56:20.806Z,101044.56
2023-02-21T18:58:49.681Z,101043.69
2023-02-21T19:01:20.766Z,101050.69
2023-02-21T19:03:51.793Z,101037.69
2023-02-21T19:06:21.161Z,101036.84
2023-02-21T19:08:51.037Z,101040.31
2023-02-21T19:11:19.241Z,101032.47
2023-02-21T19:13:50.312Z,101035.97
2023-02-21T19:16:20.615Z,101036.84
2023-02-21T19:18:51.390Z,101035.09
2023-02-21T19:21:19.333Z,101028.16
2023-02-21T19:23:47.680Z,101035.06
2023-02-21T19:26:17.096Z,101031.63
2023-02-21T19:28:45.598Z,101035.13
2023-02-21T19:31:15.131Z,101033.38
2023-02-21T19:33:44.822Z,101036.88
2023-02-21T19:36:13.363Z,101027.34
2023-02-21T19:38:41.410Z,101039.50
2023-02-21T19:41:09.944Z,101034.31
2023-02-21T19:43:39.225Z,101040.38
2023-02-21T19:46:07.394Z,101036.03
2023-02-21T19:48:35.346Z,101036.91
2023-02-21T19:51:03.409Z,101035.16
2023-02-21T19:53:31.424Z,101030.84
2023-02-21T19:55:59.367Z,101042.09
2023-02-21T19:58:27.212Z,101035.13
2023-02-21T20:00:56.649Z,101040.31
2023-02-21T20:03:24.594Z,101033.38
2023-02-21T20:05:52.630Z,101034.28
2023-02-21T20:08:20.709Z,101029.88
2023-02-21T20:10:49.092Z,101035.03
2023-02-21T20:13:17.083Z,101035.00
2023-02-21T20:15:45.452Z,101031.59
2023-02-21T20:18:15.609Z,101033.28
2023-02-21T20:20:43.822Z,101033.28
2023-02-21T20:23:13.956Z,101030.66
2023-02-21T20:25:41.850Z,101027.97
2023-02-21T20:28:09.753Z,101034.03
2023-02-21T20:30:38.467Z,101032.28
2023-02-21T20:33:06.842Z,101035.78
2023-02-21T20:35:36.431Z,101040.09
2023-02-21T20:38:05.825Z,101034.03
2023-02-21T20:40:33.830Z,101036.63
2023-02-21T20:43:02.514Z,101038.41
2023-02-21T20:45:30.532Z,101039.28
2023-02-21T20:47:58.546Z,101040.19
2023-02-21T20:50:26.531Z,101041.00
2023-02-21T20:52:55.800Z,101039.31
2023-02-21T20:55:25.157Z,101035.78
2023-02-21T20:57:53.099Z,101024.56
2023-02-21T21:00:23.553Z,101021.97
2023-02-21T21:02:51.778Z,101011.56
2023-02-21T21:05:21.133Z,101023.72
2023-02-21T21:07:49.466Z,101026.31
2023-02-21T21:10:19.306Z,101027.16
2023-02-21T21:12:49.426Z,101034.13
2023-02-21T21:15:18.062Z,101032.44
2023-02-21T21:17:46.589Z,101033.28
2023-02-21T21:20:17.763Z,101019.44
2023-02-21T21:22:46.451Z,101022.88
2023-02-21T21:25:14.988Z,101015.03
2023-02-21T21:27:45.202Z,101007.19
2023-02-21T21:30:18.115Z,101018.41
2023-02-21T21:32:46.883Z,101015.81
2023-02-21T21:35:17.661Z,101011.50
2023-02-21T21:37:45.479Z,101002.81
2023-02-21T21:40:16.857Z,101006.28
2023-02-21T21:42:48.982Z,101003.69
2023-02-21T21:45:23.908Z,101014.16
2023-02-21T21:47:53.853Z,101010.63
2023-02-21T21:50:22.816Z,101007.19
2023-02-21T21:52:52.688Z,101003.69
2023-02-21T21:55:24.349Z,101001.91
2023-02-21T21:57:54.910Z,100995.84
2023-02-21T22:00:26.014Z,101001.91
2023-02-21T22:02:57.419Z,100983.72
2023-02-21T22:05:26.081Z,100987.06
2023-02-21T22:07:54.240Z,100987.06
2023-02-21T22:10:23.962Z,100976.66
2023-02-21T22:12:55.983Z,100975.78
2023-02-21T22:15:26.725Z,100968.78
2023-02-21T22:17:55.270Z,100966.94
2023-02-21T22:20:31.259Z,100962.63
2023-02-21T22:23:00.075Z,100964.41
2023-02-21T22:25:30.369Z,100964.47
2023-02-21T22:28:03.831Z,100951.44
2023-02-21T22:30:31.874Z,100954.97
2023-02-21T22:32:59.902Z,100958.41
2023-02-21T22:35:28.569Z,100952.41
2023-02-21T22:38:01.934Z,100952.41
2023-02-21T22:40:31.097Z,100945.41
2023-02-21T22:43:02.902Z,100942.81
2023-02-21T22:45:33.152Z,100941.16
2023-02-21T22:48:03.321Z,100937.63
2023-02-21T22:50:36.929Z,100929.88
2023-02-21T22:53:08.243Z,100922.06
2023-02-21T22:55:38.118Z,100932.44
2023-02-21T22:58:09.976Z,100922.97
2023-02-21T23:00:39.228Z,100919.56
2023-02-21T23:03:13.074Z,100919.59
2023-02-21T23:05:43.564Z,100918.75
2023-02-21T23:08:12.873Z,100919.59
2023-02-21T23:10:42.458Z,100918.66
2023-02-21T23:13:14.175Z,100910.03
2023-02-21T23:15:43.180Z,100911.78
2023-02-21T23:18:13.051Z,100900.53
2023-02-21T23:20:44.736Z,100900.50
2023-02-21T23:23:14.058Z,100893.56
2023-02-21T23:25:41.897Z,100898.69
2023-02-21T23:28:14.422Z,100892.66
2023-02-21T23:30:43.887Z,100894.34
2023-02-21T23:33:15.664Z,100891.75
2023-02-21T23:35:44.324Z,100890.00
2023-02-21T23:38:15.532Z,100889.13
2023-02-21T23:40:44.716Z,100887.41
2023-02-21T23:43:19.182Z,100894.38
2023-02-21T23:45:48.243Z,100888.31
2023-02-21T23:48:16.491Z,100881.34
2023-02-21T23:50:46.491Z,100877.81
2023-02-21T23:53:16.125Z,100871.81
2023-02-21T23:55:46.787Z,100874.41
2023-02-21T23:58:19.712Z,100868.34
